sensor_id;sensor_type;location;lat;lon;timestamp;P1;durP1;ratioP1;P2;durP2;ratioP2
84999;SDS011;75320;51.608;7.952;2024-03-02T00:00:48;4.57;;;2.60;;
84999;SDS011;75320;51.608;7.952;2024-03-02T00:03:15;6.00;;;2.90;;
84999;SDS011;75320;51.608;7.952;2024-03-02T00:05:42;5.07;;;4.25;;
84999;SDS011;75320;51.608;7.952;2024-03-02T00:08:08;8.02;;;4.38;;
84999;SDS011;75320;51.608;7.952;2024-03-02T00:10:38;5.43;;;3.05;;
84999;SDS011;75320;51.608;7.952;2024-03-02T00:13:10;5.45;;;3.95;;
84999;SDS011;75320;51.608;7.952;2024-03-02T00:15:47;6.07;;;4.25;;
84999;SDS011;75320;51.608;7.952;2024-03-02T00:18:18;5.88;;;3.67;;
84999;SDS011;75320;51.608;7.952;2024-03-02T00:20:53;4.80;;;2.90;;
84999;SDS011;75320;51.608;7.952;2024-03-02T00:23:22;5.50;;;3.15;;
84999;SDS011;75320;51.608;7.952;2024-03-02T00:25:48;4.85;;;3.97;;
84999;SDS011;75320;51.608;7.952;2024-03-02T00:28:21;6.50;;;3.65;;
84999;SDS011;75320;51.608;7.952;2024-03-02T00:30:57;6.30;;;5.70;;
84999;SDS011;75320;51.608;7.952;2024-03-02T00:36:06;6.03;;;4.35;;
84999;SDS011;75320;51.608;7.952;2024-03-02T00:38:33;5.22;;;3.03;;
84999;SDS011;75320;51.608;7.952;2024-03-02T00:41:05;5.75;;;3.08;;
84999;SDS011;75320;51.608;7.952;2024-03-02T00:43:43;4.63;;;3.15;;
84999;SDS011;75320;51.608;7.952;2024-03-02T00:46:11;4.68;;;3.17;;
84999;SDS011;75320;51.608;7.952;2024-03-02T00:48:38;4.90;;;3.25;;
84999;SDS011;75320;51.608;7.952;2024-03-02T00:51:07;5.13;;;3.50;;
84999;SDS011;75320;51.608;7.952;2024-03-02T00:53:33;4.28;;;2.47;;
84999;SDS011;75320;51.608;7.952;2024-03-02T00:55:58;5.35;;;3.00;;
84999;SDS011;75320;51.608;7.952;2024-03-02T00:58:25;4.35;;;2.70;;
84999;SDS011;75320;51.608;7.952;2024-03-02T01:00:51;5.07;;;2.73;;
84999;SDS011;75320;51.608;7.952;2024-03-02T01:03:16;7.10;;;3.63;;
84999;SDS011;75320;51.608;7.952;2024-03-02T01:05:42;4.65;;;2.78;;
84999;SDS011;75320;51.608;7.952;2024-03-02T01:08:08;4.53;;;2.97;;
84999;SDS011;75320;51.608;7.952;2024-03-02T01:10:34;5.63;;;3.28;;
84999;SDS011;75320;51.608;7.952;2024-03-02T01:12:59;5.00;;;3.05;;
84999;SDS011;75320;51.608;7.952;2024-03-02T01:15:25;4.78;;;3.50;;
84999;SDS011;75320;51.608;7.952;2024-03-02T01:17:50;4.55;;;2.50;;
84999;SDS011;75320;51.608;7.952;2024-03-02T01:20:15;5.30;;;3.67;;
84999;SDS011;75320;51.608;7.952;2024-03-02T01:22:41;4.38;;;3.08;;
84999;SDS011;75320;51.608;7.952;2024-03-02T01:25:06;4.65;;;3.35;;
84999;SDS011;75320;51.608;7.952;2024-03-02T01:27:33;6.25;;;3.58;;
84999;SDS011;75320;51.608;7.952;2024-03-02T01:30:01;5.60;;;2.50;;
84999;SDS011;75320;51.608;7.952;2024-03-02T01:32:27;4.45;;;3.22;;
84999;SDS011;75320;51.608;7.952;2024-03-02T01:34:53;5.88;;;3.47;;
84999;SDS011;75320;51.608;7.952;2024-03-02T01:37:18;4.60;;;2.30;;
84999;SDS011;75320;51.608;7.952;2024-03-02T01:39:45;4.95;;;3.00;;
84999;SDS011;75320;51.608;7.952;2024-03-02T01:42:10;4.17;;;2.13;;
84999;SDS011;75320;51.608;7.952;2024-03-02T01:44:36;4.15;;;3.03;;
84999;SDS011;75320;51.608;7.952;2024-03-02T01:47:02;5.43;;;4.13;;
84999;SDS011;75320;51.608;7.952;2024-03-02T01:49:27;5.50;;;4.03;;
84999;SDS011;75320;51.608;7.952;2024-03-02T01:51:52;4.10;;;2.63;;
84999;SDS011;75320;51.608;7.952;2024-03-02T01:54:18;4.13;;;3.42;;
84999;SDS011;75320;51.608;7.952;2024-03-02T01:56:43;5.67;;;2.70;;
84999;SDS011;75320;51.608;7.952;2024-03-02T01:59:13;6.65;;;3.88;;
84999;SDS011;75320;51.608;7.952;2024-03-02T02:01:38;5.28;;;3.45;;
84999;SDS011;75320;51.608;7.952;2024-03-02T02:04:04;5.72;;;3.45;;
84999;SDS011;75320;51.608;7.952;2024-03-02T02:06:31;6.53;;;3.60;;
84999;SDS011;75320;51.608;7.952;2024-03-02T02:08:57;5.20;;;2.75;;
84999;SDS011;75320;51.608;7.952;2024-03-02T02:11:22;5.38;;;4.05;;
84999;SDS011;75320;51.608;7.952;2024-03-02T02:13:49;5.60;;;3.35;;
84999;SDS011;75320;51.608;7.952;2024-03-02T02:16:14;3.95;;;1.95;;
84999;SDS011;75320;51.608;7.952;2024-03-02T02:18:40;4.45;;;3.42;;
84999;SDS011;75320;51.608;7.952;2024-03-02T02:21:05;3.55;;;2.47;;
84999;SDS011;75320;51.608;7.952;2024-03-02T02:23:30;5.35;;;2.60;;
84999;SDS011;75320;51.608;7.952;2024-03-02T02:25:55;4.30;;;2.40;;
84999;SDS011;75320;51.608;7.952;2024-03-02T02:28:21;5.60;;;3.57;;
84999;SDS011;75320;51.608;7.952;2024-03-02T02:30:46;4.17;;;2.27;;
84999;SDS011;75320;51.608;7.952;2024-03-02T02:33:12;5.13;;;3.22;;
84999;SDS011;75320;51.608;7.952;2024-03-02T02:35:38;4.47;;;3.42;;
84999;SDS011;75320;51.608;7.952;2024-03-02T02:38:05;3.55;;;1.80;;
84999;SDS011;75320;51.608;7.952;2024-03-02T02:40:31;4.35;;;1.95;;
84999;SDS011;75320;51.608;7.952;2024-03-02T02:42:58;4.80;;;2.53;;
84999;SDS011;75320;51.608;7.952;2024-03-02T02:45:26;4.32;;;2.15;;
84999;SDS011;75320;51.608;7.952;2024-03-02T02:47:51;4.47;;;3.53;;
84999;SDS011;75320;51.608;7.952;2024-03-02T02:50:17;5.10;;;2.73;;
84999;SDS011;75320;51.608;7.952;2024-03-02T02:52:42;4.20;;;2.10;;
84999;SDS011;75320;51.608;7.952;2024-03-02T02:55:09;3.80;;;2.13;;
84999;SDS011;75320;51.608;7.952;2024-03-02T02:57:36;4.43;;;2.78;;
84999;SDS011;75320;51.608;7.952;2024-03-02T03:00:10;5.38;;;3.67;;
84999;SDS011;75320;51.608;7.952;2024-03-02T03:02:43;4.85;;;3.45;;
84999;SDS011;75320;51.608;7.952;2024-03-02T03:05:10;6.55;;;4.88;;
84999;SDS011;75320;51.608;7.952;2024-03-02T03:07:36;4.95;;;3.60;;
84999;SDS011;75320;51.608;7.952;2024-03-02T03:10:02;5.13;;;2.20;;
84999;SDS011;75320;51.608;7.952;2024-03-02T03:12:29;4.75;;;4.20;;
84999;SDS011;75320;51.608;7.952;2024-03-02T03:14:55;4.60;;;2.25;;
84999;SDS011;75320;51.608;7.952;2024-03-02T03:17:23;5.03;;;2.88;;
84999;SDS011;75320;51.608;7.952;2024-03-02T03:19:50;4.63;;;2.42;;
84999;SDS011;75320;51.608;7.952;2024-03-02T03:22:16;4.43;;;2.50;;
84999;SDS011;75320;51.608;7.952;2024-03-02T03:24:41;6.47;;;4.35;;
84999;SDS011;75320;51.608;7.952;2024-03-02T03:27:07;5.55;;;4.15;;
84999;SDS011;75320;51.608;7.952;2024-03-02T03:29:32;5.72;;;4.03;;
84999;SDS011;75320;51.608;7.952;2024-03-02T03:31:57;6.27;;;2.93;;
84999;SDS011;75320;51.608;7.952;2024-03-02T03:34:23;5.70;;;3.93;;
84999;SDS011;75320;51.608;7.952;2024-03-02T03:36:48;4.93;;;2.60;;
84999;SDS011;75320;51.608;7.952;2024-03-02T03:39:13;6.03;;;4.57;;
84999;SDS011;75320;51.608;7.952;2024-03-02T03:41:41;5.43;;;3.53;;
84999;SDS011;75320;51.608;7.952;2024-03-02T03:44:08;5.53;;;2.72;;
84999;SDS011;75320;51.608;7.952;2024-03-02T03:46:33;5.73;;;3.73;;
84999;SDS011;75320;51.608;7.952;2024-03-02T03:48:58;5.33;;;3.27;;
84999;SDS011;75320;51.608;7.952;2024-03-02T03:51:24;7.37;;;3.53;;
84999;SDS011;75320;51.608;7.952;2024-03-02T03:53:50;7.20;;;5.30;;
84999;SDS011;75320;51.608;7.952;2024-03-02T03:56:16;6.50;;;3.10;;
84999;SDS011;75320;51.608;7.952;2024-03-02T03:58:42;6.60;;;4.80;;
84999;SDS011;75320;51.608;7.952;2024-03-02T04:01:09;5.60;;;4.90;;
84999;SDS011;75320;51.608;7.952;2024-03-02T04:03:35;8.50;;;4.22;;
84999;SDS011;75320;51.608;7.952;2024-03-02T04:06:01;5.80;;;4.35;;
84999;SDS011;75320;51.608;7.952;2024-03-02T04:08:26;6.10;;;4.20;;
84999;SDS011;75320;51.608;7.952;2024-03-02T04:10:51;5.70;;;4.47;;
84999;SDS011;75320;51.608;7.952;2024-03-02T04:13:18;6.82;;;3.15;;
84999;SDS011;75320;51.608;7.952;2024-03-02T04:15:43;5.07;;;2.85;;
84999;SDS011;75320;51.608;7.952;2024-03-02T04:18:09;5.83;;;3.60;;
84999;SDS011;75320;51.608;7.952;2024-03-02T04:20:34;5.60;;;4.53;;
84999;SDS011;75320;51.608;7.952;2024-03-02T04:23:00;7.90;;;6.37;;
84999;SDS011;75320;51.608;7.952;2024-03-02T04:25:26;6.38;;;3.50;;
84999;SDS011;75320;51.608;7.952;2024-03-02T04:27:51;6.30;;;4.97;;
84999;SDS011;75320;51.608;7.952;2024-03-02T04:30:16;6.00;;;4.40;;
84999;SDS011;75320;51.608;7.952;2024-03-02T04:32:41;7.00;;;3.15;;
84999;SDS011;75320;51.608;7.952;2024-03-02T04:35:11;7.15;;;4.25;;
84999;SDS011;75320;51.608;7.952;2024-03-02T04:37:36;7.50;;;5.43;;
84999;SDS011;75320;51.608;7.952;2024-03-02T04:40:01;6.57;;;4.17;;
84999;SDS011;75320;51.608;7.952;2024-03-02T04:42:27;8.75;;;5.45;;
84999;SDS011;75320;51.608;7.952;2024-03-02T04:44:52;6.97;;;4.03;;
84999;SDS011;75320;51.608;7.952;2024-03-02T04:47:17;8.60;;;6.00;;
84999;SDS011;75320;51.608;7.952;2024-03-02T04:49:43;8.10;;;5.27;;
84999;SDS011;75320;51.608;7.952;2024-03-02T04:52:08;6.63;;;4.38;;
84999;SDS011;75320;51.608;7.952;2024-03-02T04:54:35;7.57;;;4.05;;
84999;SDS011;75320;51.608;7.952;2024-03-02T04:57:20;7.47;;;5.88;;
84999;SDS011;75320;51.608;7.952;2024-03-02T04:59:45;6.77;;;4.17;;
84999;SDS011;75320;51.608;7.952;2024-03-02T05:02:11;6.40;;;4.10;;
84999;SDS011;75320;51.608;7.952;2024-03-02T05:04:39;8.85;;;4.88;;
84999;SDS011;75320;51.608;7.952;2024-03-02T05:07:04;8.30;;;5.43;;
84999;SDS011;75320;51.608;7.952;2024-03-02T05:09:30;6.78;;;4.25;;
84999;SDS011;75320;51.608;7.952;2024-03-02T05:11:55;8.67;;;5.80;;
84999;SDS011;75320;51.608;7.952;2024-03-02T05:14:48;7.97;;;5.72;;
84999;SDS011;75320;51.608;7.952;2024-03-02T05:17:13;8.73;;;7.17;;
84999;SDS011;75320;51.608;7.952;2024-03-02T05:19:39;9.10;;;5.45;;
84999;SDS011;75320;51.608;7.952;2024-03-02T05:22:05;11.67;;;7.40;;
84999;SDS011;75320;51.608;7.952;2024-03-02T05:24:30;9.45;;;6.43;;
84999;SDS011;75320;51.608;7.952;2024-03-02T05:26:56;10.95;;;7.97;;
84999;SDS011;75320;51.608;7.952;2024-03-02T05:29:22;10.00;;;6.10;;
84999;SDS011;75320;51.608;7.952;2024-03-02T05:31:47;10.48;;;7.35;;
84999;SDS011;75320;51.608;7.952;2024-03-02T05:34:13;7.70;;;6.28;;
84999;SDS011;75320;51.608;7.952;2024-03-02T05:36:38;8.47;;;4.57;;
84999;SDS011;75320;51.608;7.952;2024-03-02T05:39:04;8.15;;;3.90;;
84999;SDS011;75320;51.608;7.952;2024-03-02T05:41:34;7.00;;;4.25;;
84999;SDS011;75320;51.608;7.952;2024-03-02T05:44:00;7.72;;;5.88;;
84999;SDS011;75320;51.608;7.952;2024-03-02T05:46:26;9.70;;;5.80;;
84999;SDS011;75320;51.608;7.952;2024-03-02T05:48:52;8.50;;;5.72;;
84999;SDS011;75320;51.608;7.952;2024-03-02T05:51:17;8.18;;;6.40;;
84999;SDS011;75320;51.608;7.952;2024-03-02T05:53:42;6.97;;;5.93;;
84999;SDS011;75320;51.608;7.952;2024-03-02T05:56:09;7.17;;;5.87;;
84999;SDS011;75320;51.608;7.952;2024-03-02T05:58:35;7.38;;;5.43;;
84999;SDS011;75320;51.608;7.952;2024-03-02T06:01:18;6.97;;;5.50;;
84999;SDS011;75320;51.608;7.952;2024-03-02T06:03:44;6.05;;;4.03;;
84999;SDS011;75320;51.608;7.952;2024-03-02T06:06:10;7.30;;;5.47;;
84999;SDS011;75320;51.608;7.952;2024-03-02T06:08:35;7.43;;;4.43;;
84999;SDS011;75320;51.608;7.952;2024-03-02T06:11:03;6.40;;;5.43;;
84999;SDS011;75320;51.608;7.952;2024-03-02T06:13:28;7.07;;;3.40;;
84999;SDS011;75320;51.608;7.952;2024-03-02T06:15:53;7.15;;;5.75;;
84999;SDS011;75320;51.608;7.952;2024-03-02T06:18:20;6.85;;;4.68;;
84999;SDS011;75320;51.608;7.952;2024-03-02T06:20:46;6.93;;;5.57;;
84999;SDS011;75320;51.608;7.952;2024-03-02T06:23:11;8.67;;;7.07;;
84999;SDS011;75320;51.608;7.952;2024-03-02T06:25:36;7.70;;;5.17;;
84999;SDS011;75320;51.608;7.952;2024-03-02T06:28:01;6.22;;;5.18;;
84999;SDS011;75320;51.608;7.952;2024-03-02T06:30:27;6.55;;;3.47;;
84999;SDS011;75320;51.608;7.952;2024-03-02T06:32:53;7.30;;;4.97;;
84999;SDS011;75320;51.608;7.952;2024-03-02T06:35:19;8.47;;;5.33;;
84999;SDS011;75320;51.608;7.952;2024-03-02T06:37:45;7.82;;;5.28;;
84999;SDS011;75320;51.608;7.952;2024-03-02T06:40:11;6.07;;;3.45;;
84999;SDS011;75320;51.608;7.952;2024-03-02T06:42:36;7.63;;;6.50;;
84999;SDS011;75320;51.608;7.952;2024-03-02T06:45:02;7.78;;;5.75;;
84999;SDS011;75320;51.608;7.952;2024-03-02T06:47:28;8.48;;;5.25;;
84999;SDS011;75320;51.608;7.952;2024-03-02T06:49:53;6.88;;;5.15;;
84999;SDS011;75320;51.608;7.952;2024-03-02T06:52:19;9.05;;;6.93;;
84999;SDS011;75320;51.608;7.952;2024-03-02T06:54:45;7.13;;;4.05;;
84999;SDS011;75320;51.608;7.952;2024-03-02T06:57:11;11.32;;;8.45;;
84999;SDS011;75320;51.608;7.952;2024-03-02T06:59:37;16.63;;;10.25;;
84999;SDS011;75320;51.608;7.952;2024-03-02T07:02:03;10.80;;;6.28;;
84999;SDS011;75320;51.608;7.952;2024-03-02T07:04:28;7.70;;;5.78;;
84999;SDS011;75320;51.608;7.952;2024-03-02T07:06:54;7.10;;;6.15;;
84999;SDS011;75320;51.608;7.952;2024-03-02T07:09:20;6.30;;;3.53;;
84999;SDS011;75320;51.608;7.952;2024-03-02T07:11:48;6.65;;;3.72;;
84999;SDS011;75320;51.608;7.952;2024-03-02T07:14:15;6.75;;;3.63;;
84999;SDS011;75320;51.608;7.952;2024-03-02T07:16:40;7.28;;;5.07;;
84999;SDS011;75320;51.608;7.952;2024-03-02T07:19:05;6.28;;;5.05;;
84999;SDS011;75320;51.608;7.952;2024-03-02T07:21:32;6.25;;;5.07;;
84999;SDS011;75320;51.608;7.952;2024-03-02T07:23:58;5.75;;;3.83;;
84999;SDS011;75320;51.608;7.952;2024-03-02T07:26:24;6.40;;;3.42;;
84999;SDS011;75320;51.608;7.952;2024-03-02T07:28:50;6.50;;;3.35;;
84999;SDS011;75320;51.608;7.952;2024-03-02T07:31:16;7.28;;;3.80;;
84999;SDS011;75320;51.608;7.952;2024-03-02T07:33:45;6.15;;;3.50;;
84999;SDS011;75320;51.608;7.952;2024-03-02T07:36:12;5.85;;;3.80;;
84999;SDS011;75320;51.608;7.952;2024-03-02T07:38:39;7.28;;;3.72;;
84999;SDS011;75320;51.608;7.952;2024-03-02T07:41:05;5.57;;;4.28;;
84999;SDS011;75320;51.608;7.952;2024-03-02T07:43:31;6.90;;;2.90;;
84999;SDS011;75320;51.608;7.952;2024-03-02T07:45:58;6.72;;;3.58;;
84999;SDS011;75320;51.608;7.952;2024-03-02T07:48:23;6.10;;;4.05;;
84999;SDS011;75320;51.608;7.952;2024-03-02T07:50:50;5.40;;;2.80;;
84999;SDS011;75320;51.608;7.952;2024-03-02T07:53:16;6.78;;;3.90;;
84999;SDS011;75320;51.608;7.952;2024-03-02T07:55:41;9.82;;;6.72;;
84999;SDS011;75320;51.608;7.952;2024-03-02T07:58:07;7.85;;;6.32;;
84999;SDS011;75320;51.608;7.952;2024-03-02T08:00:34;6.82;;;4.45;;
84999;SDS011;75320;51.608;7.952;2024-03-02T08:03:00;7.32;;;5.00;;
84999;SDS011;75320;51.608;7.952;2024-03-02T08:05:27;6.82;;;4.10;;
84999;SDS011;75320;51.608;7.952;2024-03-02T08:07:52;6.65;;;2.88;;
84999;SDS011;75320;51.608;7.952;2024-03-02T08:10:18;5.38;;;2.88;;
84999;SDS011;75320;51.608;7.952;2024-03-02T08:12:44;6.68;;;3.17;;
84999;SDS011;75320;51.608;7.952;2024-03-02T08:15:10;4.82;;;2.85;;
84999;SDS011;75320;51.608;7.952;2024-03-02T08:17:38;5.60;;;4.18;;
84999;SDS011;75320;51.608;7.952;2024-03-02T08:20:05;5.90;;;2.88;;
84999;SDS011;75320;51.608;7.952;2024-03-02T08:22:31;6.30;;;4.50;;
84999;SDS011;75320;51.608;7.952;2024-03-02T08:24:58;6.18;;;3.55;;
84999;SDS011;75320;51.608;7.952;2024-03-02T08:27:23;5.30;;;3.35;;
84999;SDS011;75320;51.608;7.952;2024-03-02T08:29:49;4.65;;;3.47;;
84999;SDS011;75320;51.608;7.952;2024-03-02T08:32:14;6.83;;;4.20;;
84999;SDS011;75320;51.608;7.952;2024-03-02T08:34:44;5.03;;;2.60;;
84999;SDS011;75320;51.608;7.952;2024-03-02T08:37:09;7.10;;;3.78;;
84999;SDS011;75320;51.608;7.952;2024-03-02T08:39:34;7.00;;;2.35;;
84999;SDS011;75320;51.608;7.952;2024-03-02T08:42:00;5.95;;;2.65;;
84999;SDS011;75320;51.608;7.952;2024-03-02T08:44:25;4.82;;;2.33;;
84999;SDS011;75320;51.608;7.952;2024-03-02T08:46:50;5.07;;;2.50;;
84999;SDS011;75320;51.608;7.952;2024-03-02T08:49:16;5.35;;;2.35;;
84999;SDS011;75320;51.608;7.952;2024-03-02T08:51:41;5.20;;;3.28;;
84999;SDS011;75320;51.608;7.952;2024-03-02T08:54:06;5.97;;;1.93;;
84999;SDS011;75320;51.608;7.952;2024-03-02T08:56:32;4.43;;;2.47;;
84999;SDS011;75320;51.608;7.952;2024-03-02T08:58:57;8.10;;;2.58;;
84999;SDS011;75320;51.608;7.952;2024-03-02T09:01:23;4.25;;;2.00;;
84999;SDS011;75320;51.608;7.952;2024-03-02T09:03:48;3.97;;;2.42;;
84999;SDS011;75320;51.608;7.952;2024-03-02T09:06:14;4.28;;;2.08;;
84999;SDS011;75320;51.608;7.952;2024-03-02T09:11:07;4.33;;;2.10;;
84999;SDS011;75320;51.608;7.952;2024-03-02T09:13:32;4.55;;;2.88;;
84999;SDS011;75320;51.608;7.952;2024-03-02T09:15:58;3.60;;;2.13;;
84999;SDS011;75320;51.608;7.952;2024-03-02T09:18:23;4.28;;;2.70;;
84999;SDS011;75320;51.608;7.952;2024-03-02T09:20:49;4.88;;;2.88;;
84999;SDS011;75320;51.608;7.952;2024-03-02T09:23:14;4.65;;;1.80;;
84999;SDS011;75320;51.608;7.952;2024-03-02T09:25:40;3.85;;;2.42;;
84999;SDS011;75320;51.608;7.952;2024-03-02T09:28:05;3.63;;;1.80;;
84999;SDS011;75320;51.608;7.952;2024-03-02T09:30:32;3.78;;;1.88;;
84999;SDS011;75320;51.608;7.952;2024-03-02T09:32:57;4.18;;;2.53;;
84999;SDS011;75320;51.608;7.952;2024-03-02T09:35:22;4.18;;;2.63;;
84999;SDS011;75320;51.608;7.952;2024-03-02T09:37:48;5.50;;;3.00;;
84999;SDS011;75320;51.608;7.952;2024-03-02T09:40:13;3.92;;;1.77;;
84999;SDS011;75320;51.608;7.952;2024-03-02T09:42:39;3.50;;;2.00;;
84999;SDS011;75320;51.608;7.952;2024-03-02T09:45:05;5.05;;;2.80;;
84999;SDS011;75320;51.608;7.952;2024-03-02T09:47:31;3.70;;;1.65;;
84999;SDS011;75320;51.608;7.952;2024-03-02T09:49:57;4.22;;;2.40;;
84999;SDS011;75320;51.608;7.952;2024-03-02T09:52:22;4.50;;;3.00;;
84999;SDS011;75320;51.608;7.952;2024-03-02T09:54:48;6.82;;;2.65;;
84999;SDS011;75320;51.608;7.952;2024-03-02T09:57:14;4.82;;;1.83;;
84999;SDS011;75320;51.608;7.952;2024-03-02T09:59:40;4.38;;;2.00;;
84999;SDS011;75320;51.608;7.952;2024-03-02T10:02:05;3.70;;;1.75;;
84999;SDS011;75320;51.608;7.952;2024-03-02T10:04:32;3.97;;;2.88;;
84999;SDS011;75320;51.608;7.952;2024-03-02T10:07:14;5.05;;;1.88;;
84999;SDS011;75320;51.608;7.952;2024-03-02T10:09:43;4.53;;;2.03;;
84999;SDS011;75320;51.608;7.952;2024-03-02T10:12:13;5.57;;;1.92;;
84999;SDS011;75320;51.608;7.952;2024-03-02T10:14:42;4.65;;;1.60;;
84999;SDS011;75320;51.608;7.952;2024-03-02T10:17:09;4.22;;;1.50;;
84999;SDS011;75320;51.608;7.952;2024-03-02T10:19:36;3.97;;;1.67;;
84999;SDS011;75320;51.608;7.952;2024-03-02T10:22:03;6.72;;;2.80;;
84999;SDS011;75320;51.608;7.952;2024-03-02T10:24:43;7.32;;;1.98;;
84999;SDS011;75320;51.608;7.952;2024-03-02T10:27:10;12.38;;;3.50;;
84999;SDS011;75320;51.608;7.952;2024-03-02T10:29:40;3.65;;;1.95;;
84999;SDS011;75320;51.608;7.952;2024-03-02T10:32:08;3.22;;;2.42;;
84999;SDS011;75320;51.608;7.952;2024-03-02T10:34:35;3.47;;;1.73;;
84999;SDS011;75320;51.608;7.952;2024-03-02T10:37:01;2.95;;;1.10;;
84999;SDS011;75320;51.608;7.952;2024-03-02T10:39:26;3.55;;;2.22;;
84999;SDS011;75320;51.608;7.952;2024-03-02T10:41:53;5.45;;;1.85;;
84999;SDS011;75320;51.608;7.952;2024-03-02T10:46:47;3.80;;;1.70;;
84999;SDS011;75320;51.608;7.952;2024-03-02T10:49:14;2.75;;;1.83;;
84999;SDS011;75320;51.608;7.952;2024-03-02T10:51:39;3.63;;;1.88;;
84999;SDS011;75320;51.608;7.952;2024-03-02T10:54:04;3.85;;;1.50;;
84999;SDS011;75320;51.608;7.952;2024-03-02T10:56:30;2.63;;;0.93;;
84999;SDS011;75320;51.608;7.952;2024-03-02T10:59:01;3.95;;;1.88;;
84999;SDS011;75320;51.608;7.952;2024-03-02T11:01:31;3.70;;;1.75;;
84999;SDS011;75320;51.608;7.952;2024-03-02T11:03:58;3.40;;;1.92;;
84999;SDS011;75320;51.608;7.952;2024-03-02T11:06:23;3.17;;;1.75;;
84999;SDS011;75320;51.608;7.952;2024-03-02T11:08:53;2.60;;;1.52;;
84999;SDS011;75320;51.608;7.952;2024-03-02T11:11:25;2.90;;;1.77;;
84999;SDS011;75320;51.608;7.952;2024-03-02T11:13:54;3.30;;;2.13;;
84999;SDS011;75320;51.608;7.952;2024-03-02T11:19:01;2.80;;;1.60;;
84999;SDS011;75320;51.608;7.952;2024-03-02T11:21:40;3.38;;;1.60;;
84999;SDS011;75320;51.608;7.952;2024-03-02T11:24:51;3.40;;;2.13;;
84999;SDS011;75320;51.608;7.952;2024-03-02T11:27:09;4.00;;;2.10;;
84999;SDS011;75320;51.608;7.952;2024-03-02T11:32:06;3.88;;;1.90;;
84999;SDS011;75320;51.608;7.952;2024-03-02T11:34:41;4.63;;;2.47;;
84999;SDS011;75320;51.608;7.952;2024-03-02T11:37:20;3.30;;;1.95;;
84999;SDS011;75320;51.608;7.952;2024-03-02T11:39:46;2.75;;;2.17;;
84999;SDS011;75320;51.608;7.952;2024-03-02T11:42:14;6.95;;;2.08;;
84999;SDS011;75320;51.608;7.952;2024-03-02T11:44:46;3.20;;;1.83;;
84999;SDS011;75320;51.608;7.952;2024-03-02T11:47:13;3.80;;;1.80;;
84999;SDS011;75320;51.608;7.952;2024-03-02T11:49:48;3.45;;;1.90;;
84999;SDS011;75320;51.608;7.952;2024-03-02T11:52:19;3.30;;;2.00;;
84999;SDS011;75320;51.608;7.952;2024-03-02T11:54:45;3.20;;;1.70;;
84999;SDS011;75320;51.608;7.952;2024-03-02T11:57:18;4.13;;;2.25;;
84999;SDS011;75320;51.608;7.952;2024-03-02T11:59:45;3.40;;;1.67;;
84999;SDS011;75320;51.608;7.952;2024-03-02T12:02:14;3.30;;;1.95;;
84999;SDS011;75320;51.608;7.952;2024-03-02T12:04:43;2.92;;;1.67;;
84999;SDS011;75320;51.608;7.952;2024-03-02T12:07:10;2.80;;;1.52;;
84999;SDS011;75320;51.608;7.952;2024-03-02T12:09:36;3.17;;;1.85;;
84999;SDS011;75320;51.608;7.952;2024-03-02T12:12:06;3.95;;;1.90;;
84999;SDS011;75320;51.608;7.952;2024-03-02T12:14:32;3.38;;;2.03;;
84999;SDS011;75320;51.608;7.952;2024-03-02T12:16:59;3.65;;;2.38;;
84999;SDS011;75320;51.608;7.952;2024-03-02T12:19:25;3.42;;;1.42;;
84999;SDS011;75320;51.608;7.952;2024-03-02T12:21:51;3.20;;;1.80;;
84999;SDS011;75320;51.608;7.952;2024-03-02T12:24:17;3.53;;;1.70;;
84999;SDS011;75320;51.608;7.952;2024-03-02T12:26:43;2.92;;;1.23;;
84999;SDS011;75320;51.608;7.952;2024-03-02T12:29:09;5.13;;;2.13;;
84999;SDS011;75320;51.608;7.952;2024-03-02T12:31:35;3.50;;;1.60;;
84999;SDS011;75320;51.608;7.952;2024-03-02T12:34:01;3.60;;;1.95;;
84999;SDS011;75320;51.608;7.952;2024-03-02T12:38:54;2.65;;;1.33;;
84999;SDS011;75320;51.608;7.952;2024-03-02T12:41:21;4.63;;;2.80;;
84999;SDS011;75320;51.608;7.952;2024-03-02T12:43:46;4.38;;;1.98;;
84999;SDS011;75320;51.608;7.952;2024-03-02T12:46:13;3.13;;;1.40;;
84999;SDS011;75320;51.608;7.952;2024-03-02T12:48:39;3.50;;;2.38;;
84999;SDS011;75320;51.608;7.952;2024-03-02T12:51:06;4.85;;;2.20;;
84999;SDS011;75320;51.608;7.952;2024-03-02T12:53:31;3.78;;;2.17;;
84999;SDS011;75320;51.608;7.952;2024-03-02T12:55:57;3.42;;;1.92;;
84999;SDS011;75320;51.608;7.952;2024-03-02T12:58:23;3.95;;;2.40;;
84999;SDS011;75320;51.608;7.952;2024-03-02T13:00:48;3.45;;;2.05;;
84999;SDS011;75320;51.608;7.952;2024-03-02T13:03:14;3.83;;;2.03;;
84999;SDS011;75320;51.608;7.952;2024-03-02T13:05:40;3.40;;;2.28;;
84999;SDS011;75320;51.608;7.952;2024-03-02T13:08:06;3.22;;;2.25;;
84999;SDS011;75320;51.608;7.952;2024-03-02T13:10:32;3.70;;;1.80;;
84999;SDS011;75320;51.608;7.952;2024-03-02T13:12:57;4.43;;;1.83;;
84999;SDS011;75320;51.608;7.952;2024-03-02T13:15:23;3.05;;;1.92;;
84999;SDS011;75320;51.608;7.952;2024-03-02T13:17:48;3.30;;;1.92;;
84999;SDS011;75320;51.608;7.952;2024-03-02T13:20:15;4.07;;;1.45;;
84999;SDS011;75320;51.608;7.952;2024-03-02T13:25:08;3.20;;;1.70;;
84999;SDS011;75320;51.608;7.952;2024-03-02T13:27:35;3.30;;;2.42;;
84999;SDS011;75320;51.608;7.952;2024-03-02T13:30:02;4.88;;;2.22;;
84999;SDS011;75320;51.608;7.952;2024-03-02T13:32:28;3.70;;;1.90;;
84999;SDS011;75320;51.608;7.952;2024-03-02T13:34:53;3.47;;;2.25;;
84999;SDS011;75320;51.608;7.952;2024-03-02T13:37:19;3.08;;;1.80;;
84999;SDS011;75320;51.608;7.952;2024-03-02T13:39:45;3.55;;;2.08;;
84999;SDS011;75320;51.608;7.952;2024-03-02T13:42:11;3.40;;;1.70;;
84999;SDS011;75320;51.608;7.952;2024-03-02T13:44:38;3.13;;;2.13;;
84999;SDS011;75320;51.608;7.952;2024-03-02T13:47:04;3.30;;;2.03;;
84999;SDS011;75320;51.608;7.952;2024-03-02T13:49:31;4.15;;;1.55;;
84999;SDS011;75320;51.608;7.952;2024-03-02T13:52:04;4.00;;;2.38;;
84999;SDS011;75320;51.608;7.952;2024-03-02T13:54:39;3.50;;;1.52;;
84999;SDS011;75320;51.608;7.952;2024-03-02T13:57:05;4.40;;;2.50;;
84999;SDS011;75320;51.608;7.952;2024-03-02T13:59:32;3.28;;;2.00;;
84999;SDS011;75320;51.608;7.952;2024-03-02T14:01:58;4.38;;;1.80;;
84999;SDS011;75320;51.608;7.952;2024-03-02T14:04:24;3.58;;;1.98;;
84999;SDS011;75320;51.608;7.952;2024-03-02T14:06:51;2.70;;;1.13;;
84999;SDS011;75320;51.608;7.952;2024-03-02T14:09:16;3.17;;;2.15;;
84999;SDS011;75320;51.608;7.952;2024-03-02T14:11:41;4.88;;;1.02;;
84999;SDS011;75320;51.608;7.952;2024-03-02T14:14:07;3.60;;;1.30;;
84999;SDS011;75320;51.608;7.952;2024-03-02T14:16:32;2.85;;;1.33;;
84999;SDS011;75320;51.608;7.952;2024-03-02T14:18:57;3.00;;;1.17;;
84999;SDS011;75320;51.608;7.952;2024-03-02T14:21:24;3.10;;;1.25;;
84999;SDS011;75320;51.608;7.952;2024-03-02T14:23:50;3.38;;;2.00;;
84999;SDS011;75320;51.608;7.952;2024-03-02T14:26:15;3.87;;;1.20;;
84999;SDS011;75320;51.608;7.952;2024-03-02T14:28:41;3.00;;;1.95;;
84999;SDS011;75320;51.608;7.952;2024-03-02T14:31:06;3.03;;;2.20;;
84999;SDS011;75320;51.608;7.952;2024-03-02T14:33:32;2.97;;;1.70;;
84999;SDS011;75320;51.608;7.952;2024-03-02T14:35:59;5.18;;;1.92;;
84999;SDS011;75320;51.608;7.952;2024-03-02T14:38:24;2.83;;;1.42;;
84999;SDS011;75320;51.608;7.952;2024-03-02T14:40:51;3.60;;;2.30;;
84999;SDS011;75320;51.608;7.952;2024-03-02T14:43:17;4.05;;;2.10;;
84999;SDS011;75320;51.608;7.952;2024-03-02T14:45:42;2.47;;;1.13;;
84999;SDS011;75320;51.608;7.952;2024-03-02T14:48:08;3.17;;;1.92;;
84999;SDS011;75320;51.608;7.952;2024-03-02T14:50:33;3.03;;;1.70;;
84999;SDS011;75320;51.608;7.952;2024-03-02T14:53:02;2.75;;;1.30;;
84999;SDS011;75320;51.608;7.952;2024-03-02T14:55:27;5.45;;;2.40;;
84999;SDS011;75320;51.608;7.952;2024-03-02T14:57:55;5.55;;;3.47;;
84999;SDS011;75320;51.608;7.952;2024-03-02T15:00:21;5.30;;;3.60;;
84999;SDS011;75320;51.608;7.952;2024-03-02T15:02:49;4.07;;;2.53;;